createdAt,value
2024-04-16T00:01:32.753Z,97.74
2024-04-16T00:06:54.662Z,97.72
2024-04-16T00:12:16.582Z,97.56
2024-04-16T00:17:38.573Z,95.12
2024-04-16T00:23:00.766Z,94.72
2024-04-16T00:28:22.789Z,93.87
2024-04-16T00:33:45.041Z,99.73
2024-04-16T00:39:09.148Z,100.00
2024-04-16T00:44:31.158Z,100.00
2024-04-16T00:49:53.723Z,100.00
2024-04-16T00:55:15.840Z,100.00
2024-04-16T01:00:37.893Z,99.58
2024-04-16T01:06:00.671Z,99.87
2024-04-16T01:11:29.584Z,97.65
2024-04-16T01:16:51.534Z,98.28
2024-04-16T01:22:13.552Z,96.53
2024-04-16T01:27:35.501Z,96.19
2024-04-16T01:32:57.460Z,98.41
2024-04-16T01:38:19.369Z,96.92
2024-04-16T01:43:41.304Z,97.32
2024-04-16T01:49:03.255Z,95.15
2024-04-16T01:54:25.248Z,90.96
2024-04-16T01:59:47.158Z,89.83
2024-04-16T02:05:09.372Z,91.08
2024-04-16T02:10:31.310Z,93.54
2024-04-16T02:15:53.576Z,94.69
2024-04-16T02:21:15.895Z,93.58
2024-04-16T02:26:37.813Z,92.04
2024-04-16T02:31:59.864Z,91.42
2024-04-16T02:37:21.870Z,91.26
2024-04-16T02:42:43.887Z,89.30
2024-04-16T02:48:06.814Z,90.01
2024-04-16T02:53:28.773Z,93.34
2024-04-16T02:58:50.712Z,95.15
2024-04-16T03:04:12.706Z,100.00
2024-04-16T03:09:34.812Z,100.00
2024-04-16T03:14:56.746Z,100.00
2024-04-16T03:20:18.663Z,100.00
2024-04-16T03:25:44.326Z,100.00
2024-04-16T03:31:06.314Z,100.00
2024-04-16T03:36:28.349Z,100.00
2024-04-16T03:41:50.271Z,100.00
2024-04-16T03:47:12.511Z,100.00
2024-04-16T03:52:34.597Z,100.00
2024-04-16T03:57:56.635Z,100.00
2024-04-16T04:03:18.790Z,100.00
2024-04-16T04:08:40.681Z,100.00
2024-04-16T04:14:02.678Z,100.00
2024-04-16T04:19:24.691Z,100.00
2024-04-16T04:24:46.810Z,100.00
2024-04-16T04:30:09.461Z,100.00
2024-04-16T04:35:31.404Z,100.00
2024-04-16T04:40:53.283Z,100.00
2024-04-16T04:46:15.207Z,100.00
2024-04-16T04:51:37.125Z,100.00
2024-04-16T04:56:59.519Z,100.00
2024-04-16T05:02:21.507Z,100.00
2024-04-16T05:07:43.586Z,100.00
2024-04-16T05:13:05.554Z,99.99
2024-04-16T05:18:28.714Z,100.00
2024-04-16T05:23:51.880Z,98.55
2024-04-16T05:29:13.873Z,92.78
2024-04-16T05:34:35.795Z,91.46
2024-04-16T05:39:57.748Z,91.65
2024-04-16T05:45:19.673Z,90.59
2024-04-16T05:50:42.275Z,90.32
2024-04-16T05:56:04.401Z,88.65
2024-04-16T06:07:11.298Z,87.35
2024-04-16T06:12:33.308Z,85.58
2024-04-16T06:17:55.841Z,86.14
2024-04-16T06:23:17.779Z,85.56
2024-04-16T06:28:40.714Z,82.90
2024-04-16T06:34:02.807Z,78.49
2024-04-16T06:39:24.961Z,79.41
2024-04-16T06:44:46.884Z,73.36
2024-04-16T06:50:08.942Z,72.41
2024-04-16T06:55:31.592Z,70.36
2024-04-16T07:00:55.323Z,67.08
2024-04-16T07:06:17.234Z,65.76
2024-04-16T07:11:39.707Z,61.65
2024-04-16T07:17:01.663Z,61.34
2024-04-16T07:22:24.413Z,60.44
2024-04-16T07:27:46.338Z,57.69
2024-04-16T07:33:09.282Z,57.52
2024-04-16T07:38:31.362Z,55.40
2024-04-16T07:43:53.355Z,53.74
2024-04-16T07:49:15.387Z,53.27
2024-04-16T07:54:37.395Z,50.65
2024-04-16T07:59:59.259Z,50.27
2024-04-16T08:05:21.328Z,49.74
2024-04-16T08:10:43.798Z,49.45
2024-04-16T08:16:06.939Z,49.68
2024-04-16T08:21:28.842Z,50.56
2024-04-16T08:26:50.738Z,48.89
2024-04-16T08:32:12.689Z,49.17
2024-04-16T08:37:34.765Z,45.80
2024-04-16T08:42:58.594Z,46.25
2024-04-16T08:48:22.935Z,43.91
2024-04-16T08:53:47.612Z,43.84
2024-04-16T08:59:09.515Z,43.61
2024-04-16T09:04:37.830Z,43.03
2024-04-16T09:10:00.684Z,41.47
2024-04-16T09:15:23.164Z,40.37
2024-04-16T09:20:46.649Z,40.97
2024-04-16T09:26:14.837Z,41.10
2024-04-16T09:31:36.830Z,42.55
2024-04-16T09:37:00.766Z,41.89
2024-04-16T09:42:23.357Z,42.27
2024-04-16T09:47:48.155Z,44.23
2024-04-16T09:53:13.318Z,45.40
2024-04-16T09:58:35.761Z,47.72
2024-04-16T10:03:59.374Z,47.64
2024-04-16T10:09:21.501Z,47.17
2024-04-16T10:14:44.741Z,47.27
2024-04-16T10:20:13.168Z,47.71
2024-04-16T10:25:35.307Z,48.70
2024-04-16T10:31:04.304Z,50.15
2024-04-16T10:36:27.588Z,50.36
2024-04-16T10:41:59.668Z,52.60
2024-04-16T10:47:22.925Z,52.03
2024-04-16T10:52:45.193Z,49.81
2024-04-16T10:58:09.252Z,49.22
2024-04-16T11:03:34.325Z,49.01
2024-04-16T11:08:56.344Z,48.11
2024-04-16T11:14:18.828Z,48.27
2024-04-16T11:19:41.153Z,50.35
2024-04-16T11:25:03.284Z,52.46
2024-04-16T11:30:26.549Z,53.66
2024-04-16T11:35:48.460Z,50.23
2024-04-16T11:41:13.052Z,48.27
2024-04-16T11:46:36.389Z,47.73
2024-04-16T11:52:02.549Z,46.11
2024-04-16T11:57:24.502Z,45.75
2024-04-16T12:02:46.572Z,50.51
2024-04-16T12:08:11.242Z,53.48
2024-04-16T12:13:33.984Z,49.90
2024-04-16T12:18:56.103Z,49.64
2024-04-16T12:24:18.104Z,49.99
2024-04-16T12:29:40.025Z,49.38
2024-04-16T12:35:02.373Z,47.67
2024-04-16T12:40:26.115Z,44.32
2024-04-16T12:45:50.224Z,38.36
2024-04-16T12:51:12.967Z,39.52
2024-04-16T12:56:34.891Z,42.09
2024-04-16T13:01:56.981Z,41.50
2024-04-16T13:07:19.266Z,40.23
2024-04-16T13:12:44.343Z,41.10
2024-04-16T13:18:09.887Z,39.74
2024-04-16T13:23:31.922Z,39.59
2024-04-16T13:28:53.923Z,41.47
2024-04-16T13:34:15.951Z,45.18
2024-04-16T13:39:37.873Z,44.25
2024-04-16T13:44:59.717Z,40.90
2024-04-16T13:50:21.627Z,37.73
2024-04-16T13:55:43.554Z,37.96
2024-04-16T14:01:05.532Z,35.72
2024-04-16T14:06:27.487Z,39.52
2024-04-16T14:11:49.490Z,36.63
2024-04-16T14:17:11.512Z,39.71
2024-04-16T14:22:33.613Z,35.80
2024-04-16T14:27:56.046Z,35.02
2024-04-16T14:33:19.307Z,35.73
2024-04-16T14:38:41.905Z,35.67
2024-04-16T14:44:04.209Z,36.10
2024-04-16T14:49:26.189Z,36.08
2024-04-16T14:54:49.171Z,34.14
2024-04-16T15:00:13.415Z,35.44
2024-04-16T15:05:35.432Z,37.95
2024-04-16T15:10:57.409Z,36.84
2024-04-16T15:16:19.675Z,37.64
2024-04-16T15:21:41.680Z,37.86
2024-04-16T15:27:03.872Z,39.81
2024-04-16T15:32:26.570Z,41.39
2024-04-16T15:37:48.669Z,43.42
2024-04-16T15:43:10.691Z,43.71
2024-04-16T15:48:32.840Z,43.79
2024-04-16T15:53:54.879Z,45.13
2024-04-16T15:59:16.803Z,47.63
2024-04-16T16:04:38.709Z,54.33
2024-04-16T16:10:01.109Z,53.36
2024-04-16T16:15:23.065Z,52.03
2024-04-16T16:20:47.270Z,50.57
2024-04-16T16:26:10.491Z,49.61
2024-04-16T16:31:35.698Z,50.67
2024-04-16T16:36:57.744Z,51.30
2024-04-16T16:42:19.629Z,51.91
2024-04-16T16:47:41.622Z,53.26
2024-04-16T16:53:03.690Z,53.28
2024-04-16T16:58:26.050Z,54.34
2024-04-16T17:03:48.196Z,55.06
2024-04-16T17:09:10.196Z,55.74
2024-04-16T17:14:32.113Z,56.63
2024-04-16T17:19:54.086Z,57.87
2024-04-16T17:25:16.222Z,59.96
2024-04-16T17:30:38.132Z,62.72
2024-04-16T17:36:00.132Z,62.49
2024-04-16T17:41:22.060Z,62.82
2024-04-16T17:46:44.191Z,60.75
2024-04-16T17:52:06.674Z,61.18
2024-04-16T17:57:28.622Z,60.78
2024-04-16T18:02:50.669Z,59.80
2024-04-16T18:08:12.658Z,60.83
2024-04-16T18:13:34.741Z,60.52
2024-04-16T18:18:56.699Z,60.97
2024-04-16T18:24:18.702Z,61.58
2024-04-16T18:29:42.474Z,62.53
2024-04-16T18:35:04.810Z,64.57
2024-04-16T18:40:26.803Z,65.50
2024-04-16T18:45:48.720Z,64.65
2024-04-16T18:51:10.629Z,64.56
2024-04-16T18:56:32.631Z,64.75
2024-04-16T19:01:55.040Z,65.26
2024-04-16T19:07:19.775Z,64.67
2024-04-16T19:12:41.897Z,66.82
2024-04-16T19:18:04.088Z,71.59
2024-04-16T19:23:27.182Z,79.09
2024-04-16T19:28:50.391Z,85.19
2024-04-16T19:34:12.417Z,85.06
2024-04-16T19:39:34.406Z,84.56
2024-04-16T19:44:56.618Z,85.85
2024-04-16T19:50:18.628Z,87.09
2024-04-16T19:55:41.901Z,85.48
2024-04-16T20:01:05.222Z,87.16
2024-04-16T20:06:27.234Z,89.58
2024-04-16T20:11:49.234Z,89.98
2024-04-16T20:17:11.758Z,87.28
2024-04-16T20:22:35.378Z,87.51
2024-04-16T20:27:57.407Z,90.20
2024-04-16T20:33:19.410Z,86.47
2024-04-16T20:38:41.472Z,87.57
2024-04-16T20:44:03.424Z,86.12
2024-04-16T20:49:25.342Z,87.65
2024-04-16T20:54:47.259Z,88.64
2024-04-16T21:00:09.504Z,88.30
2024-04-16T21:05:31.475Z,87.90
2024-04-16T21:10:53.584Z,87.58
2024-04-16T21:16:15.525Z,87.80
2024-04-16T21:21:38.282Z,87.71
2024-04-16T21:27:00.198Z,87.75
2024-04-16T21:32:22.979Z,86.73
2024-04-16T21:37:44.995Z,86.32
2024-04-16T21:43:06.886Z,86.86
2024-04-16T21:48:28.862Z,85.50
2024-04-16T21:53:50.791Z,85.54
2024-04-16T21:59:12.714Z,85.84
2024-04-16T22:04:34.823Z,85.91
2024-04-16T22:09:56.828Z,86.47
2024-04-16T22:15:18.784Z,88.48
2024-04-16T22:20:40.692Z,89.74
2024-04-16T22:26:04.671Z,90.60
2024-04-16T22:31:26.647Z,89.69
2024-04-16T22:36:48.569Z,89.76
2024-04-16T22:42:10.553Z,89.50
2024-04-16T22:47:32.704Z,90.11
2024-04-16T22:52:54.688Z,91.02
2024-04-16T22:58:18.077Z,89.21
2024-04-16T23:03:40.092Z,89.99
2024-04-16T23:09:02.472Z,90.55
2024-04-16T23:14:24.687Z,90.03
2024-04-16T23:19:46.688Z,91.43
2024-04-16T23:25:08.811Z,91.82
2024-04-16T23:30:30.686Z,93.53
2024-04-16T23:35:52.593Z,92.13
2024-04-16T23:41:14.459Z,93.40
2024-04-16T23:46:36.485Z,96.89
2024-04-16T23:51:58.400Z,99.04
2024-04-16T23:57:20.288Z,100.00
